createdAt,value
2019-03-24T00:00:28.452Z,1023.57
2019-03-24T00:01:28.468Z,1023.56
2019-03-24T00:02:28.509Z,1023.54
2019-03-24T00:03:28.497Z,1023.54
2019-03-24T00:04:28.510Z,1023.51
2019-03-24T00:05:28.516Z,1023.49
2019-03-24T00:06:28.547Z,1023.48
2019-03-24T00:07:28.609Z,1023.50
2019-03-24T00:08:28.563Z,1023.47
2019-03-24T00:09:28.579Z,1023.49
2019-03-24T00:10:28.585Z,1023.44
2019-03-24T00:11:28.613Z,1023.41
2019-03-24T00:12:28.638Z,1023.55
2019-03-24T00:13:28.660Z,1023.46
2019-03-24T00:14:28.658Z,1023.46
2019-03-24T00:15:28.688Z,1023.45
2019-03-24T00:16:28.728Z,1023.46
2019-03-24T00:17:28.682Z,1023.48
2019-03-24T00:18:28.719Z,1023.51
2019-03-24T00:19:28.712Z,1023.48
2019-03-24T00:20:28.722Z,1023.46
2019-03-24T00:21:28.750Z,1023.46
2019-03-24T00:22:28.759Z,1023.49
2019-03-24T00:23:28.764Z,1023.45
2019-03-24T00:24:28.781Z,1023.52
2019-03-24T00:25:28.787Z,1023.50
2019-03-24T00:26:28.836Z,1023.49
2019-03-24T00:27:28.869Z,1023.47
2019-03-24T00:28:28.852Z,1023.53
2019-03-24T00:29:28.862Z,1023.48
2019-03-24T00:30:28.901Z,1023.53
2019-03-24T00:31:28.877Z,1023.48
2019-03-24T00:32:28.890Z,1023.44
2019-03-24T00:33:28.964Z,1023.46
2019-03-24T00:34:28.912Z,1023.44
2019-03-24T00:35:28.925Z,1023.40
2019-03-24T00:36:28.966Z,1023.40
2019-03-24T00:37:28.956Z,1023.40
2019-03-24T00:38:29.020Z,1023.37
2019-03-24T00:39:28.983Z,1023.34
2019-03-24T00:40:29.041Z,1023.30
2019-03-24T00:41:29.015Z,1023.33
2019-03-24T00:42:29.049Z,1023.30
2019-03-24T00:43:29.039Z,1023.25
2019-03-24T00:44:29.070Z,1023.25
2019-03-24T00:45:36.834Z,1023.27
2019-03-24T00:46:29.101Z,1023.28
2019-03-24T00:47:29.095Z,1023.24
2019-03-24T00:48:29.101Z,1023.24
2019-03-24T00:49:29.139Z,1023.25
2019-03-24T00:50:29.129Z,1023.23
2019-03-24T00:51:29.168Z,1023.28
2019-03-24T00:52:29.158Z,1023.27
2019-03-24T00:53:29.172Z,1023.22
2019-03-24T00:54:29.249Z,1023.23
2019-03-24T00:55:29.208Z,1023.32
2019-03-24T00:56:29.240Z,1023.21
2019-03-24T00:57:29.255Z,1023.22
2019-03-24T00:58:29.266Z,1023.21
2019-03-24T00:59:29.311Z,1023.20
2019-03-24T01:00:29.325Z,1023.19
2019-03-24T01:01:29.272Z,1023.19
2019-03-24T01:02:29.321Z,1023.18
2019-03-24T01:03:29.325Z,1023.19
2019-03-24T01:04:29.323Z,1023.17
2019-03-24T01:05:29.374Z,1023.18
2019-03-24T01:06:29.348Z,1023.18
2019-03-24T01:07:29.413Z,1023.21
2019-03-24T01:08:29.411Z,1023.20
2019-03-24T01:09:29.417Z,1023.18
2019-03-24T01:10:29.423Z,1023.12
2019-03-24T01:11:29.430Z,1023.21
2019-03-24T01:12:29.429Z,1023.14
2019-03-24T01:13:29.439Z,1023.17
2019-03-24T01:14:29.450Z,1023.15
2019-03-24T01:15:29.496Z,1023.09
2019-03-24T01:16:29.479Z,1023.06
2019-03-24T01:17:29.515Z,1023.08
2019-03-24T01:18:29.514Z,1023.09
2019-03-24T01:19:29.552Z,1023.10
2019-03-24T01:20:29.533Z,1023.09
2019-03-24T01:21:29.554Z,1023.04
2019-03-24T01:22:29.618Z,1023.01
2019-03-24T01:23:29.573Z,1023.07
2019-03-24T01:24:29.622Z,1023.13
2019-03-24T01:25:29.596Z,1023.11
2019-03-24T01:26:29.619Z,1023.11
2019-03-24T01:27:29.635Z,1023.13
2019-03-24T01:28:29.637Z,1023.14
2019-03-24T01:29:29.697Z,1023.09
2019-03-24T01:30:29.664Z,1023.09
2019-03-24T01:31:29.685Z,1023.10
2019-03-24T01:32:29.696Z,1023.07
2019-03-24T01:33:29.710Z,1023.07
2019-03-24T01:34:29.776Z,1023.01
2019-03-24T01:35:29.777Z,1023.04
2019-03-24T01:36:29.756Z,1023.03
2019-03-24T01:37:29.764Z,1023.06
2019-03-24T01:38:29.768Z,1023.05
2019-03-24T01:39:29.787Z,1023.05
2019-03-24T01:40:29.858Z,1023.00
2019-03-24T01:41:29.818Z,1022.95
2019-03-24T01:42:29.837Z,1022.96
2019-03-24T01:43:29.849Z,1023.00
2019-03-24T01:44:29.854Z,1022.98
2019-03-24T01:45:29.916Z,1022.98
2019-03-24T01:46:29.931Z,1022.95
2019-03-24T01:47:29.970Z,1022.97
2019-03-24T01:48:29.914Z,1023.02
2019-03-24T01:49:29.917Z,1023.02
2019-03-24T01:50:29.969Z,1023.01
2019-03-24T01:51:29.954Z,1023.07
2019-03-24T01:52:29.961Z,1023.07
2019-03-24T01:53:29.976Z,1023.02
2019-03-24T01:54:30.010Z,1023.02
2019-03-24T01:55:30.031Z,1023.00
2019-03-24T01:56:30.022Z,1022.96
2019-03-24T01:57:30.069Z,1023.02
2019-03-24T01:58:30.046Z,1023.03
2019-03-24T01:59:30.055Z,1022.99
2019-03-24T02:00:30.102Z,1022.99
2019-03-24T02:01:30.134Z,1022.99
2019-03-24T02:02:30.104Z,1022.99
2019-03-24T02:03:30.136Z,1022.99
2019-03-24T02:04:30.126Z,1022.97
2019-03-24T02:05:30.165Z,1022.97
2019-03-24T02:06:30.154Z,1023.02
2019-03-24T02:07:30.158Z,1023.03
2019-03-24T02:08:30.202Z,1023.00
2019-03-24T02:09:30.238Z,1022.98
2019-03-24T02:10:30.272Z,1022.93
2019-03-24T02:11:30.222Z,1022.96
2019-03-24T02:12:30.238Z,1022.94
2019-03-24T02:13:30.239Z,1023.00
2019-03-24T02:14:30.257Z,1022.95
2019-03-24T02:15:30.278Z,1022.95
2019-03-24T02:16:30.332Z,1022.90
2019-03-24T02:17:30.304Z,1022.97
2019-03-24T02:18:30.342Z,1022.94
2019-03-24T02:19:30.360Z,1022.87
2019-03-24T02:20:30.353Z,1022.87
2019-03-24T02:21:30.358Z,1022.87
2019-03-24T02:22:30.359Z,1022.93
2019-03-24T02:23:30.443Z,1022.89
2019-03-24T02:24:30.384Z,1022.91
2019-03-24T02:25:30.438Z,1022.88
2019-03-24T02:26:30.420Z,1022.88
2019-03-24T02:27:30.424Z,1022.88
2019-03-24T02:28:30.458Z,1022.87
2019-03-24T02:29:30.489Z,1022.92
2019-03-24T02:30:30.485Z,1022.91
2019-03-24T02:31:30.491Z,1022.87
2019-03-24T02:32:30.495Z,1022.90
2019-03-24T02:33:30.503Z,1022.85
2019-03-24T02:34:30.527Z,1022.82
2019-03-24T02:35:30.529Z,1022.85
2019-03-24T02:36:30.593Z,1022.85
2019-03-24T02:37:30.558Z,1022.78
2019-03-24T02:38:30.568Z,1022.85
2019-03-24T02:39:30.611Z,1022.79
2019-03-24T02:40:30.603Z,1022.78
2019-03-24T02:41:32.474Z,1022.74
2019-03-24T02:42:30.670Z,1022.72
2019-03-24T02:43:30.669Z,1022.74
2019-03-24T02:44:30.672Z,1022.71
2019-03-24T02:45:30.666Z,1022.70
2019-03-24T02:46:30.683Z,1022.72
2019-03-24T02:47:30.687Z,1022.68
2019-03-24T02:48:30.719Z,1022.73
2019-03-24T02:49:30.719Z,1022.72
2019-03-24T02:50:30.741Z,1022.75
2019-03-24T02:51:30.735Z,1022.76
2019-03-24T02:52:30.758Z,1022.75
2019-03-24T02:53:30.776Z,1022.73
2019-03-24T02:54:30.846Z,1022.77
2019-03-24T02:55:30.851Z,1022.81
2019-03-24T02:56:30.899Z,1022.74
2019-03-24T02:57:30.866Z,1022.73
2019-03-24T02:58:30.830Z,1022.78
2019-03-24T02:59:30.871Z,1022.78
2019-03-24T03:00:30.893Z,1022.80
2019-03-24T03:01:30.871Z,1022.77
2019-03-24T03:02:30.908Z,1022.75
2019-03-24T03:03:30.908Z,1022.79
2019-03-24T03:04:30.907Z,1022.74
2019-03-24T03:05:30.918Z,1022.73
2019-03-24T03:06:30.965Z,1022.73
2019-03-24T03:07:30.947Z,1022.71
2019-03-24T03:08:31.002Z,1022.78
2019-03-24T03:09:30.989Z,1022.69
2019-03-24T03:10:30.987Z,1022.72
2019-03-24T03:11:31.070Z,1022.73
2019-03-24T03:12:31.018Z,1022.71
2019-03-24T03:13:31.099Z,1022.76
2019-03-24T03:14:31.038Z,1022.67
2019-03-24T03:15:31.099Z,1022.67
2019-03-24T03:16:38.517Z,1022.64
2019-03-24T03:17:31.114Z,1022.65
2019-03-24T03:18:31.101Z,1022.63
2019-03-24T03:19:31.120Z,1022.64
2019-03-24T03:20:31.143Z,1022.63
2019-03-24T03:21:31.130Z,1022.62
2019-03-24T03:22:31.158Z,1022.66
2019-03-24T03:23:31.172Z,1022.65
2019-03-24T03:24:31.177Z,1022.62
2019-03-24T03:25:31.181Z,1022.60
2019-03-24T03:26:31.194Z,1022.65
2019-03-24T03:27:31.252Z,1022.62
2019-03-24T03:28:31.221Z,1022.55
2019-03-24T03:29:31.237Z,1022.55
2019-03-24T03:30:31.275Z,1022.56
2019-03-24T03:31:31.300Z,1022.56
2019-03-24T03:32:31.281Z,1022.57
2019-03-24T03:33:31.298Z,1022.51
2019-03-24T03:34:31.307Z,1022.51
2019-03-24T03:35:31.367Z,1022.52
2019-03-24T03:36:31.373Z,1022.49
2019-03-24T03:37:31.344Z,1022.50
2019-03-24T03:38:31.364Z,1022.50
2019-03-24T03:39:31.364Z,1022.50
2019-03-24T03:40:31.380Z,1022.52
2019-03-24T03:41:31.390Z,1022.50
2019-03-24T03:42:31.414Z,1022.50
2019-03-24T03:43:31.419Z,1022.48
2019-03-24T03:44:31.430Z,1022.45
2019-03-24T03:45:31.452Z,1022.45
2019-03-24T03:46:31.480Z,1022.47
2019-03-24T03:47:31.471Z,1022.45
2019-03-24T03:48:31.515Z,1022.43
2019-03-24T03:49:31.506Z,1022.51
2019-03-24T03:50:31.509Z,1022.45
2019-03-24T03:51:31.528Z,1022.47
2019-03-24T03:52:31.535Z,1022.43
2019-03-24T03:53:31.578Z,1022.43
2019-03-24T03:54:31.553Z,1022.43
2019-03-24T03:55:31.576Z,1022.46
2019-03-24T03:56:31.585Z,1022.46
2019-03-24T03:57:31.627Z,1022.46
2019-03-24T03:58:31.620Z,1022.45
2019-03-24T03:59:31.656Z,1022.43
2019-03-24T04:00:31.645Z,1022.41
2019-03-24T04:01:31.689Z,1022.42
2019-03-24T04:02:31.662Z,1022.46
2019-03-24T04:03:31.676Z,1022.45
2019-03-24T04:04:31.722Z,1022.49
2019-03-24T04:05:31.709Z,1022.45
2019-03-24T04:06:31.715Z,1022.46
2019-03-24T04:07:31.726Z,1022.43
2019-03-24T04:08:31.768Z,1022.44
2019-03-24T04:09:31.799Z,1022.42
2019-03-24T04:10:31.765Z,1022.47
2019-03-24T04:11:31.775Z,1022.44
2019-03-24T04:12:31.791Z,1022.44
2019-03-24T04:13:31.843Z,1022.44
2019-03-24T04:14:31.859Z,1022.41
2019-03-24T04:15:31.830Z,1022.40
2019-03-24T04:16:31.906Z,1022.38
2019-03-24T04:17:31.856Z,1022.42
2019-03-24T04:18:31.910Z,1022.42
2019-03-24T04:19:31.949Z,1022.42
2019-03-24T04:20:31.906Z,1022.40
2019-03-24T04:21:31.942Z,1022.31
2019-03-24T04:22:31.921Z,1022.34
2019-03-24T04:23:31.972Z,1022.31
2019-03-24T04:24:31.954Z,1022.22
2019-03-24T04:25:32.021Z,1022.24
2019-03-24T04:26:31.969Z,1022.23
2019-03-24T04:27:31.985Z,1022.24
2019-03-24T04:28:31.999Z,1022.18
2019-03-24T04:29:32.003Z,1022.18
2019-03-24T04:30:32.057Z,1022.16
2019-03-24T04:31:32.051Z,1022.20
2019-03-24T04:32:32.140Z,1022.15
2019-03-24T04:33:32.064Z,1022.15
2019-03-24T04:34:32.073Z,1022.14
2019-03-24T04:35:32.088Z,1022.13
2019-03-24T04:36:32.121Z,1022.14
2019-03-24T04:37:33.184Z,1022.14
2019-03-24T04:38:32.141Z,1022.17
2019-03-24T04:39:32.144Z,1022.14
2019-03-24T04:40:32.154Z,1022.16
2019-03-24T04:41:32.200Z,1022.13
2019-03-24T04:42:32.185Z,1022.13
2019-03-24T04:43:32.227Z,1022.13
2019-03-24T04:44:32.209Z,1022.15
2019-03-24T04:45:32.216Z,1022.16
2019-03-24T04:46:32.230Z,1022.18
2019-03-24T04:47:32.265Z,1022.18
2019-03-24T04:48:32.251Z,1022.18
2019-03-24T04:49:32.329Z,1022.20
2019-03-24T04:50:32.296Z,1022.21
2019-03-24T04:51:32.293Z,1022.17
2019-03-24T04:52:32.304Z,1022.22
2019-03-24T04:53:32.391Z,1022.21
2019-03-24T04:54:32.373Z,1022.17
2019-03-24T04:55:32.344Z,1022.15
2019-03-24T04:56:32.361Z,1022.19
2019-03-24T04:57:32.427Z,1022.16
2019-03-24T04:58:32.378Z,1022.23
2019-03-24T04:59:32.393Z,1022.22
2019-03-24T05:00:32.444Z,1022.23
2019-03-24T05:01:32.418Z,1022.22
2019-03-24T05:02:32.432Z,1022.21
2019-03-24T05:03:32.522Z,1022.18
2019-03-24T05:04:32.518Z,1022.15
2019-03-24T05:05:32.469Z,1022.17
2019-03-24T05:06:32.516Z,1022.09
2019-03-24T05:07:32.503Z,1022.11
2019-03-24T05:08:32.528Z,1022.07
2019-03-24T05:09:32.547Z,1022.12
2019-03-24T05:10:32.557Z,1022.13
2019-03-24T05:11:32.578Z,1022.12
2019-03-24T05:12:32.618Z,1022.16
2019-03-24T05:13:32.574Z,1022.10
2019-03-24T05:14:32.642Z,1022.09
2019-03-24T05:15:32.612Z,1022.08
2019-03-24T05:16:32.612Z,1022.05
2019-03-24T05:17:32.626Z,1022.05
2019-03-24T05:18:32.647Z,1022.05
2019-03-24T05:19:32.650Z,1022.08
2019-03-24T05:20:32.673Z,1022.06
2019-03-24T05:21:32.680Z,1022.05
2019-03-24T05:22:32.748Z,1022.06
2019-03-24T05:23:32.859Z,1022.05
2019-03-24T05:24:41.253Z,1022.05
2019-03-24T05:25:34.652Z,1022.03
2019-03-24T05:26:42.681Z,1022.06
2019-03-24T05:28:26.995Z,1022.09
2019-03-24T05:31:06.157Z,1022.12
2019-03-24T05:33:46.833Z,1022.17
2019-03-24T05:34:46.208Z,1022.16
2019-03-24T05:35:54.333Z,1022.16
2019-03-24T05:37:52.026Z,1022.16
2019-03-24T05:39:00.984Z,1022.18
2019-03-24T05:39:59.483Z,1022.22
2019-03-24T05:41:57.469Z,1022.25
